sensor_id;sensor_type;location;lat;lon;timestamp;P1;durP1;ratioP1;P2;durP2;ratioP2
64457;SDS011;58438;51.200;7.252;2022-10-14T00:01:46;27.75;;;12.02;;
64457;SDS011;58438;51.200;7.252;2022-10-14T00:04:33;24.15;;;12.48;;
64457;SDS011;58438;51.200;7.252;2022-10-14T00:07:21;21.95;;;11.90;;
64457;SDS011;58438;51.200;7.252;2022-10-14T00:10:09;28.58;;;12.70;;
64457;SDS011;58438;51.200;7.252;2022-10-14T00:12:55;26.48;;;12.48;;
64457;SDS011;58438;51.200;7.252;2022-10-14T00:15:42;28.20;;;12.65;;
64457;SDS011;58438;51.200;7.252;2022-10-14T00:18:29;25.60;;;12.63;;
64457;SDS011;58438;51.200;7.252;2022-10-14T00:21:17;23.23;;;11.73;;
64457;SDS011;58438;51.200;7.252;2022-10-14T00:24:07;22.73;;;11.27;;
64457;SDS011;58438;51.200;7.252;2022-10-14T00:26:57;21.20;;;9.55;;
64457;SDS011;58438;51.200;7.252;2022-10-14T00:29:46;19.95;;;10.07;;
64457;SDS011;58438;51.200;7.252;2022-10-14T00:32:34;19.00;;;9.18;;
64457;SDS011;58438;51.200;7.252;2022-10-14T00:35:23;20.15;;;9.90;;
64457;SDS011;58438;51.200;7.252;2022-10-14T00:38:12;17.33;;;8.32;;
64457;SDS011;58438;51.200;7.252;2022-10-14T00:41:02;14.75;;;8.00;;
64457;SDS011;58438;51.200;7.252;2022-10-14T00:43:54;14.27;;;7.95;;
64457;SDS011;58438;51.200;7.252;2022-10-14T00:46:43;14.50;;;7.85;;
64457;SDS011;58438;51.200;7.252;2022-10-14T00:49:33;16.75;;;8.00;;
64457;SDS011;58438;51.200;7.252;2022-10-14T00:52:23;14.23;;;7.10;;
64457;SDS011;58438;51.200;7.252;2022-10-14T00:55:13;16.52;;;8.15;;
64457;SDS011;58438;51.200;7.252;2022-10-14T00:58:02;16.38;;;8.88;;
64457;SDS011;58438;51.200;7.252;2022-10-14T01:00:51;19.90;;;9.10;;
64457;SDS011;58438;51.200;7.252;2022-10-14T01:03:41;20.63;;;9.13;;
64457;SDS011;58438;51.200;7.252;2022-10-14T01:06:35;21.23;;;10.20;;
64457;SDS011;58438;51.200;7.252;2022-10-14T01:09:27;22.77;;;10.45;;
64457;SDS011;58438;51.200;7.252;2022-10-14T01:12:17;22.95;;;11.15;;
64457;SDS011;58438;51.200;7.252;2022-10-14T01:15:18;24.05;;;10.43;;
64457;SDS011;58438;51.200;7.252;2022-10-14T01:18:11;34.88;;;13.65;;
64457;SDS011;58438;51.200;7.252;2022-10-14T01:21:11;29.77;;;13.55;;
64457;SDS011;58438;51.200;7.252;2022-10-14T01:24:06;28.35;;;12.90;;
64457;SDS011;58438;51.200;7.252;2022-10-14T01:27:01;27.90;;;12.55;;
64457;SDS011;58438;51.200;7.252;2022-10-14T01:29:56;28.40;;;12.25;;
64457;SDS011;58438;51.200;7.252;2022-10-14T01:32:50;29.65;;;11.93;;
64457;SDS011;58438;51.200;7.252;2022-10-14T01:35:40;23.85;;;11.57;;
64457;SDS011;58438;51.200;7.252;2022-10-14T01:38:29;24.55;;;10.68;;
64457;SDS011;58438;51.200;7.252;2022-10-14T01:41:18;20.20;;;9.95;;
64457;SDS011;58438;51.200;7.252;2022-10-14T01:44:07;21.35;;;10.60;;
64457;SDS011;58438;51.200;7.252;2022-10-14T01:46:56;21.98;;;8.88;;
64457;SDS011;58438;51.200;7.252;2022-10-14T01:49:45;24.27;;;10.48;;
64457;SDS011;58438;51.200;7.252;2022-10-14T01:52:35;21.58;;;9.75;;
64457;SDS011;58438;51.200;7.252;2022-10-14T01:55:25;17.85;;;9.40;;
64457;SDS011;58438;51.200;7.252;2022-10-14T01:58:15;21.08;;;9.95;;
64457;SDS011;58438;51.200;7.252;2022-10-14T02:01:02;19.35;;;9.88;;
64457;SDS011;58438;51.200;7.252;2022-10-14T02:03:50;21.33;;;9.98;;
64457;SDS011;58438;51.200;7.252;2022-10-14T02:06:37;22.88;;;10.55;;
64457;SDS011;58438;51.200;7.252;2022-10-14T02:09:29;20.65;;;9.70;;
64457;SDS011;58438;51.200;7.252;2022-10-14T02:12:21;20.33;;;9.57;;
64457;SDS011;58438;51.200;7.252;2022-10-14T02:15:15;19.95;;;9.43;;
64457;SDS011;58438;51.200;7.252;2022-10-14T02:18:04;21.45;;;10.38;;
64457;SDS011;58438;51.200;7.252;2022-10-14T02:20:55;20.73;;;10.23;;
64457;SDS011;58438;51.200;7.252;2022-10-14T02:26:36;20.70;;;8.85;;
64457;SDS011;58438;51.200;7.252;2022-10-14T02:29:25;17.52;;;7.93;;
64457;SDS011;58438;51.200;7.252;2022-10-14T02:32:15;17.17;;;7.93;;
64457;SDS011;58438;51.200;7.252;2022-10-14T02:35:05;16.70;;;8.80;;
64457;SDS011;58438;51.200;7.252;2022-10-14T02:37:54;20.25;;;8.93;;
64457;SDS011;58438;51.200;7.252;2022-10-14T02:40:43;16.90;;;8.13;;
64457;SDS011;58438;51.200;7.252;2022-10-14T02:43:31;14.25;;;7.53;;
64457;SDS011;58438;51.200;7.252;2022-10-14T02:46:18;17.60;;;8.70;;
64457;SDS011;58438;51.200;7.252;2022-10-14T02:49:06;20.05;;;8.82;;
64457;SDS011;58438;51.200;7.252;2022-10-14T02:51:52;15.85;;;9.02;;
64457;SDS011;58438;51.200;7.252;2022-10-14T02:54:41;23.55;;;10.07;;
64457;SDS011;58438;51.200;7.252;2022-10-14T02:57:28;20.38;;;9.65;;
64457;SDS011;58438;51.200;7.252;2022-10-14T03:00:15;15.68;;;8.20;;
64457;SDS011;58438;51.200;7.252;2022-10-14T03:03:02;15.93;;;8.40;;
64457;SDS011;58438;51.200;7.252;2022-10-14T03:05:49;15.02;;;8.57;;
64457;SDS011;58438;51.200;7.252;2022-10-14T03:08:36;15.68;;;8.93;;
64457;SDS011;58438;51.200;7.252;2022-10-14T03:11:24;16.85;;;8.38;;
64457;SDS011;58438;51.200;7.252;2022-10-14T03:14:11;16.33;;;9.00;;
64457;SDS011;58438;51.200;7.252;2022-10-14T03:16:58;16.10;;;9.18;;
64457;SDS011;58438;51.200;7.252;2022-10-14T03:19:44;19.17;;;9.05;;
64457;SDS011;58438;51.200;7.252;2022-10-14T03:22:31;18.65;;;9.40;;
64457;SDS011;58438;51.200;7.252;2022-10-14T03:25:18;14.43;;;8.30;;
64457;SDS011;58438;51.200;7.252;2022-10-14T03:28:06;13.05;;;7.00;;
64457;SDS011;58438;51.200;7.252;2022-10-14T03:30:53;14.93;;;7.13;;
64457;SDS011;58438;51.200;7.252;2022-10-14T03:33:40;10.95;;;6.55;;
64457;SDS011;58438;51.200;7.252;2022-10-14T03:36:27;14.23;;;6.85;;
64457;SDS011;58438;51.200;7.252;2022-10-14T03:39:14;12.52;;;6.75;;
64457;SDS011;58438;51.200;7.252;2022-10-14T03:42:00;11.40;;;6.63;;
64457;SDS011;58438;51.200;7.252;2022-10-14T03:44:49;13.70;;;7.35;;
64457;SDS011;58438;51.200;7.252;2022-10-14T03:47:35;14.70;;;7.43;;
64457;SDS011;58438;51.200;7.252;2022-10-14T03:50:22;14.80;;;8.38;;
64457;SDS011;58438;51.200;7.252;2022-10-14T03:53:09;15.82;;;8.63;;
64457;SDS011;58438;51.200;7.252;2022-10-14T03:55:57;13.40;;;7.28;;
64457;SDS011;58438;51.200;7.252;2022-10-14T03:58:44;15.32;;;7.88;;
64457;SDS011;58438;51.200;7.252;2022-10-14T04:01:32;15.80;;;8.50;;
64457;SDS011;58438;51.200;7.252;2022-10-14T04:04:19;16.85;;;8.63;;
64457;SDS011;58438;51.200;7.252;2022-10-14T04:07:06;17.15;;;8.38;;
64457;SDS011;58438;51.200;7.252;2022-10-14T04:09:53;15.65;;;7.78;;
64457;SDS011;58438;51.200;7.252;2022-10-14T04:12:40;14.80;;;8.13;;
64457;SDS011;58438;51.200;7.252;2022-10-14T04:15:28;14.98;;;7.90;;
64457;SDS011;58438;51.200;7.252;2022-10-14T04:18:17;16.55;;;8.45;;
64457;SDS011;58438;51.200;7.252;2022-10-14T04:21:04;15.80;;;8.85;;
64457;SDS011;58438;51.200;7.252;2022-10-14T04:23:51;14.98;;;7.30;;
64457;SDS011;58438;51.200;7.252;2022-10-14T04:26:38;14.50;;;7.70;;
64457;SDS011;58438;51.200;7.252;2022-10-14T04:29:25;13.38;;;7.15;;
64457;SDS011;58438;51.200;7.252;2022-10-14T04:32:12;12.90;;;7.20;;
64457;SDS011;58438;51.200;7.252;2022-10-14T04:35:00;13.20;;;7.30;;
64457;SDS011;58438;51.200;7.252;2022-10-14T04:37:47;13.82;;;8.15;;
64457;SDS011;58438;51.200;7.252;2022-10-14T04:40:34;14.40;;;7.88;;
64457;SDS011;58438;51.200;7.252;2022-10-14T04:43:21;15.95;;;8.50;;
64457;SDS011;58438;51.200;7.252;2022-10-14T04:46:08;17.00;;;8.65;;
64457;SDS011;58438;51.200;7.252;2022-10-14T04:48:55;18.33;;;8.73;;
64457;SDS011;58438;51.200;7.252;2022-10-14T04:51:43;17.02;;;9.15;;
64457;SDS011;58438;51.200;7.252;2022-10-14T04:54:31;19.92;;;9.48;;
64457;SDS011;58438;51.200;7.252;2022-10-14T04:57:18;19.10;;;9.10;;
64457;SDS011;58438;51.200;7.252;2022-10-14T05:00:05;18.95;;;10.10;;
64457;SDS011;58438;51.200;7.252;2022-10-14T05:02:52;19.77;;;10.18;;
64457;SDS011;58438;51.200;7.252;2022-10-14T05:05:39;20.65;;;9.63;;
64457;SDS011;58438;51.200;7.252;2022-10-14T05:08:27;18.30;;;10.50;;
64457;SDS011;58438;51.200;7.252;2022-10-14T05:11:14;15.05;;;8.60;;
64457;SDS011;58438;51.200;7.252;2022-10-14T05:14:01;15.05;;;9.15;;
64457;SDS011;58438;51.200;7.252;2022-10-14T05:16:48;18.70;;;9.82;;
64457;SDS011;58438;51.200;7.252;2022-10-14T05:19:35;18.73;;;10.07;;
64457;SDS011;58438;51.200;7.252;2022-10-14T05:22:22;20.23;;;9.27;;
64457;SDS011;58438;51.200;7.252;2022-10-14T05:25:11;16.73;;;9.20;;
64457;SDS011;58438;51.200;7.252;2022-10-14T05:27:57;19.25;;;9.90;;
64457;SDS011;58438;51.200;7.252;2022-10-14T05:30:44;15.65;;;9.55;;
64457;SDS011;58438;51.200;7.252;2022-10-14T05:33:31;15.52;;;9.55;;
64457;SDS011;58438;51.200;7.252;2022-10-14T05:36:19;16.65;;;9.25;;
64457;SDS011;58438;51.200;7.252;2022-10-14T05:39:06;15.32;;;8.40;;
64457;SDS011;58438;51.200;7.252;2022-10-14T05:41:54;12.15;;;7.72;;
64457;SDS011;58438;51.200;7.252;2022-10-14T05:44:41;17.48;;;8.85;;
64457;SDS011;58438;51.200;7.252;2022-10-14T05:47:27;16.10;;;9.02;;
64457;SDS011;58438;51.200;7.252;2022-10-14T05:50:14;14.13;;;7.75;;
64457;SDS011;58438;51.200;7.252;2022-10-14T05:53:01;15.30;;;8.52;;
64457;SDS011;58438;51.200;7.252;2022-10-14T05:55:48;15.93;;;8.90;;
64457;SDS011;58438;51.200;7.252;2022-10-14T05:58:36;16.63;;;8.63;;
64457;SDS011;58438;51.200;7.252;2022-10-14T06:01:23;15.52;;;8.43;;
64457;SDS011;58438;51.200;7.252;2022-10-14T06:04:14;14.75;;;8.00;;
64457;SDS011;58438;51.200;7.252;2022-10-14T06:07:01;15.95;;;9.00;;
64457;SDS011;58438;51.200;7.252;2022-10-14T06:09:48;13.82;;;8.05;;
64457;SDS011;58438;51.200;7.252;2022-10-14T06:12:35;14.65;;;8.40;;
64457;SDS011;58438;51.200;7.252;2022-10-14T06:15:23;17.05;;;8.10;;
64457;SDS011;58438;51.200;7.252;2022-10-14T06:18:12;13.95;;;8.57;;
64457;SDS011;58438;51.200;7.252;2022-10-14T06:21:00;14.80;;;8.63;;
64457;SDS011;58438;51.200;7.252;2022-10-14T06:23:47;15.63;;;8.93;;
64457;SDS011;58438;51.200;7.252;2022-10-14T06:26:34;17.23;;;8.80;;
64457;SDS011;58438;51.200;7.252;2022-10-14T06:29:21;14.10;;;7.95;;
64457;SDS011;58438;51.200;7.252;2022-10-14T06:32:12;18.88;;;8.65;;
64457;SDS011;58438;51.200;7.252;2022-10-14T06:34:59;15.75;;;8.82;;
64457;SDS011;58438;51.200;7.252;2022-10-14T06:37:46;15.68;;;8.40;;
64457;SDS011;58438;51.200;7.252;2022-10-14T06:40:32;15.35;;;8.55;;
64457;SDS011;58438;51.200;7.252;2022-10-14T06:43:20;14.73;;;8.65;;
64457;SDS011;58438;51.200;7.252;2022-10-14T06:46:07;20.17;;;10.18;;
64457;SDS011;58438;51.200;7.252;2022-10-14T06:48:55;15.35;;;9.02;;
64457;SDS011;58438;51.200;7.252;2022-10-14T06:51:42;20.50;;;8.43;;
64457;SDS011;58438;51.200;7.252;2022-10-14T06:54:29;13.20;;;8.43;;
64457;SDS011;58438;51.200;7.252;2022-10-14T06:57:21;20.27;;;9.32;;
64457;SDS011;58438;51.200;7.252;2022-10-14T07:00:09;15.98;;;8.88;;
64457;SDS011;58438;51.200;7.252;2022-10-14T07:02:56;15.70;;;8.88;;
64457;SDS011;58438;51.200;7.252;2022-10-14T07:05:45;17.20;;;9.65;;
64457;SDS011;58438;51.200;7.252;2022-10-14T07:08:33;15.30;;;8.48;;
64457;SDS011;58438;51.200;7.252;2022-10-14T07:11:20;16.85;;;7.88;;
64457;SDS011;58438;51.200;7.252;2022-10-14T07:14:08;15.57;;;8.30;;
64457;SDS011;58438;51.200;7.252;2022-10-14T07:16:56;14.15;;;7.53;;
64457;SDS011;58438;51.200;7.252;2022-10-14T07:19:45;14.45;;;8.25;;
64457;SDS011;58438;51.200;7.252;2022-10-14T07:22:34;14.95;;;8.25;;
64457;SDS011;58438;51.200;7.252;2022-10-14T07:25:23;14.35;;;7.60;;
64457;SDS011;58438;51.200;7.252;2022-10-14T07:28:10;16.45;;;8.35;;
64457;SDS011;58438;51.200;7.252;2022-10-14T07:30:57;12.30;;;6.70;;
64457;SDS011;58438;51.200;7.252;2022-10-14T07:33:45;15.00;;;7.68;;
64457;SDS011;58438;51.200;7.252;2022-10-14T07:36:32;13.38;;;6.65;;
64457;SDS011;58438;51.200;7.252;2022-10-14T07:39:21;12.13;;;6.82;;
64457;SDS011;58438;51.200;7.252;2022-10-14T07:42:08;10.52;;;6.32;;
64457;SDS011;58438;51.200;7.252;2022-10-14T07:44:55;13.48;;;6.35;;
64457;SDS011;58438;51.200;7.252;2022-10-14T07:47:43;12.35;;;5.93;;
64457;SDS011;58438;51.200;7.252;2022-10-14T07:50:30;10.75;;;5.78;;
64457;SDS011;58438;51.200;7.252;2022-10-14T07:53:16;10.30;;;6.20;;
64457;SDS011;58438;51.200;7.252;2022-10-14T07:56:05;11.40;;;6.03;;
64457;SDS011;58438;51.200;7.252;2022-10-14T07:58:53;10.27;;;5.82;;
64457;SDS011;58438;51.200;7.252;2022-10-14T08:01:40;11.50;;;6.50;;
64457;SDS011;58438;51.200;7.252;2022-10-14T08:04:27;9.27;;;5.90;;
64457;SDS011;58438;51.200;7.252;2022-10-14T08:07:15;12.15;;;6.15;;
64457;SDS011;58438;51.200;7.252;2022-10-14T08:10:02;11.07;;;6.88;;
64457;SDS011;58438;51.200;7.252;2022-10-14T08:12:50;11.07;;;6.10;;
64457;SDS011;58438;51.200;7.252;2022-10-14T08:15:38;11.38;;;6.50;;
64457;SDS011;58438;51.200;7.252;2022-10-14T08:18:27;11.55;;;6.03;;
64457;SDS011;58438;51.200;7.252;2022-10-14T08:21:14;9.90;;;5.38;;
64457;SDS011;58438;51.200;7.252;2022-10-14T08:24:01;9.35;;;5.45;;
64457;SDS011;58438;51.200;7.252;2022-10-14T08:26:49;10.75;;;6.35;;
64457;SDS011;58438;51.200;7.252;2022-10-14T08:29:37;13.35;;;7.20;;
64457;SDS011;58438;51.200;7.252;2022-10-14T08:32:25;12.68;;;6.78;;
64457;SDS011;58438;51.200;7.252;2022-10-14T08:35:12;10.63;;;5.85;;
64457;SDS011;58438;51.200;7.252;2022-10-14T08:37:59;11.52;;;5.68;;
64457;SDS011;58438;51.200;7.252;2022-10-14T08:40:48;9.85;;;5.50;;
64457;SDS011;58438;51.200;7.252;2022-10-14T08:43:42;9.25;;;6.10;;
64457;SDS011;58438;51.200;7.252;2022-10-14T08:46:35;9.30;;;5.85;;
64457;SDS011;58438;51.200;7.252;2022-10-14T08:49:25;10.77;;;5.70;;
64457;SDS011;58438;51.200;7.252;2022-10-14T08:52:14;12.32;;;5.65;;
64457;SDS011;58438;51.200;7.252;2022-10-14T08:55:03;10.88;;;5.53;;
64457;SDS011;58438;51.200;7.252;2022-10-14T08:58:11;9.13;;;5.68;;
64457;SDS011;58438;51.200;7.252;2022-10-14T09:01:02;10.77;;;6.30;;
64457;SDS011;58438;51.200;7.252;2022-10-14T09:03:59;11.68;;;5.72;;
64457;SDS011;58438;51.200;7.252;2022-10-14T09:06:51;11.38;;;6.30;;
64457;SDS011;58438;51.200;7.252;2022-10-14T09:09:40;14.23;;;6.90;;
64457;SDS011;58438;51.200;7.252;2022-10-14T09:12:29;12.27;;;6.43;;
64457;SDS011;58438;51.200;7.252;2022-10-14T09:15:19;12.45;;;6.30;;
64457;SDS011;58438;51.200;7.252;2022-10-14T09:18:11;11.02;;;6.38;;
64457;SDS011;58438;51.200;7.252;2022-10-14T09:21:01;12.55;;;6.65;;
64457;SDS011;58438;51.200;7.252;2022-10-14T09:23:50;11.25;;;5.97;;
64457;SDS011;58438;51.200;7.252;2022-10-14T09:26:41;11.10;;;6.38;;
64457;SDS011;58438;51.200;7.252;2022-10-14T09:29:31;10.43;;;5.93;;
64457;SDS011;58438;51.200;7.252;2022-10-14T09:32:23;8.60;;;5.43;;
64457;SDS011;58438;51.200;7.252;2022-10-14T09:35:12;10.52;;;5.68;;
64457;SDS011;58438;51.200;7.252;2022-10-14T09:38:03;9.65;;;5.70;;
64457;SDS011;58438;51.200;7.252;2022-10-14T09:40:52;9.13;;;6.28;;
64457;SDS011;58438;51.200;7.252;2022-10-14T09:43:41;9.55;;;5.90;;
64457;SDS011;58438;51.200;7.252;2022-10-14T09:46:49;8.95;;;5.68;;
64457;SDS011;58438;51.200;7.252;2022-10-14T09:49:37;9.18;;;5.78;;
64457;SDS011;58438;51.200;7.252;2022-10-14T09:52:25;8.90;;;5.40;;
64457;SDS011;58438;51.200;7.252;2022-10-14T09:55:19;12.98;;;6.15;;
64457;SDS011;58438;51.200;7.252;2022-10-14T09:58:12;11.95;;;7.13;;
64457;SDS011;58438;51.200;7.252;2022-10-14T10:01:03;10.23;;;6.07;;
64457;SDS011;58438;51.200;7.252;2022-10-14T10:03:57;15.10;;;7.57;;
64457;SDS011;58438;51.200;7.252;2022-10-14T10:07:05;14.65;;;7.35;;
64457;SDS011;58438;51.200;7.252;2022-10-14T10:09:53;11.48;;;7.13;;
64457;SDS011;58438;51.200;7.252;2022-10-14T10:12:42;13.30;;;7.53;;
64457;SDS011;58438;51.200;7.252;2022-10-14T10:15:31;13.43;;;7.28;;
64457;SDS011;58438;51.200;7.252;2022-10-14T10:18:18;11.40;;;6.05;;
64457;SDS011;58438;51.200;7.252;2022-10-14T10:21:06;11.50;;;6.70;;
64457;SDS011;58438;51.200;7.252;2022-10-14T10:23:54;13.52;;;7.43;;
64457;SDS011;58438;51.200;7.252;2022-10-14T10:26:41;11.95;;;7.43;;
64457;SDS011;58438;51.200;7.252;2022-10-14T10:29:30;13.70;;;7.65;;
64457;SDS011;58438;51.200;7.252;2022-10-14T10:32:21;14.00;;;7.38;;
64457;SDS011;58438;51.200;7.252;2022-10-14T10:35:18;16.48;;;9.23;;
64457;SDS011;58438;51.200;7.252;2022-10-14T10:38:07;18.63;;;8.90;;
64457;SDS011;58438;51.200;7.252;2022-10-14T10:41:03;16.75;;;7.70;;
64457;SDS011;58438;51.200;7.252;2022-10-14T10:43:56;22.03;;;9.07;;
64457;SDS011;58438;51.200;7.252;2022-10-14T10:46:53;17.52;;;8.80;;
64457;SDS011;58438;51.200;7.252;2022-10-14T10:49:46;21.38;;;9.90;;
64457;SDS011;58438;51.200;7.252;2022-10-14T10:52:41;18.02;;;9.18;;
64457;SDS011;58438;51.200;7.252;2022-10-14T10:55:34;18.30;;;8.80;;
64457;SDS011;58438;51.200;7.252;2022-10-14T10:58:33;24.73;;;11.73;;
64457;SDS011;58438;51.200;7.252;2022-10-14T11:01:29;25.77;;;11.77;;
64457;SDS011;58438;51.200;7.252;2022-10-14T11:04:27;25.02;;;12.02;;
64457;SDS011;58438;51.200;7.252;2022-10-14T11:07:17;21.38;;;10.45;;
64457;SDS011;58438;51.200;7.252;2022-10-14T11:10:27;22.75;;;10.68;;
64457;SDS011;58438;51.200;7.252;2022-10-14T11:13:36;20.80;;;10.38;;
64457;SDS011;58438;51.200;7.252;2022-10-14T11:16:25;24.73;;;10.13;;
64457;SDS011;58438;51.200;7.252;2022-10-14T11:19:14;22.70;;;10.80;;
64457;SDS011;58438;51.200;7.252;2022-10-14T11:22:09;22.88;;;9.98;;
64457;SDS011;58438;51.200;7.252;2022-10-14T11:25:05;21.55;;;10.55;;
64457;SDS011;58438;51.200;7.252;2022-10-14T11:27:57;22.90;;;10.45;;
64457;SDS011;58438;51.200;7.252;2022-10-14T11:30:48;19.67;;;9.88;;
64457;SDS011;58438;51.200;7.252;2022-10-14T11:33:41;21.58;;;9.85;;
64457;SDS011;58438;51.200;7.252;2022-10-14T11:36:31;22.37;;;10.13;;
64457;SDS011;58438;51.200;7.252;2022-10-14T11:39:25;22.63;;;10.73;;
64457;SDS011;58438;51.200;7.252;2022-10-14T11:42:29;24.35;;;11.35;;
64457;SDS011;58438;51.200;7.252;2022-10-14T11:45:26;21.98;;;10.50;;
64457;SDS011;58438;51.200;7.252;2022-10-14T11:48:20;24.27;;;11.00;;
64457;SDS011;58438;51.200;7.252;2022-10-14T11:51:10;22.23;;;10.02;;
64457;SDS011;58438;51.200;7.252;2022-10-14T11:53:59;20.83;;;10.65;;
64457;SDS011;58438;51.200;7.252;2022-10-14T11:56:51;27.67;;;12.32;;
64457;SDS011;58438;51.200;7.252;2022-10-14T11:59:42;21.08;;;11.05;;
64457;SDS011;58438;51.200;7.252;2022-10-14T12:02:51;28.30;;;11.85;;
64457;SDS011;58438;51.200;7.252;2022-10-14T12:05:42;22.27;;;11.82;;
64457;SDS011;58438;51.200;7.252;2022-10-14T12:08:31;19.98;;;11.55;;
64457;SDS011;58438;51.200;7.252;2022-10-14T12:11:23;24.27;;;11.02;;
64457;SDS011;58438;51.200;7.252;2022-10-14T12:14:15;21.05;;;11.05;;
64457;SDS011;58438;51.200;7.252;2022-10-14T12:17:04;23.80;;;11.60;;
64457;SDS011;58438;51.200;7.252;2022-10-14T12:19:52;25.02;;;11.77;;
64457;SDS011;58438;51.200;7.252;2022-10-14T12:22:39;22.92;;;9.82;;
64457;SDS011;58438;51.200;7.252;2022-10-14T12:25:27;20.67;;;9.90;;
64457;SDS011;58438;51.200;7.252;2022-10-14T12:28:17;18.08;;;8.90;;
64457;SDS011;58438;51.200;7.252;2022-10-14T12:31:31;21.13;;;9.65;;
64457;SDS011;58438;51.200;7.252;2022-10-14T12:34:28;16.77;;;8.35;;
64457;SDS011;58438;51.200;7.252;2022-10-14T12:40:28;15.80;;;7.82;;
64457;SDS011;58438;51.200;7.252;2022-10-14T12:43:16;13.65;;;7.90;;
64457;SDS011;58438;51.200;7.252;2022-10-14T12:46:09;15.85;;;8.57;;
64457;SDS011;58438;51.200;7.252;2022-10-14T12:48:58;18.10;;;8.95;;
64457;SDS011;58438;51.200;7.252;2022-10-14T12:51:51;16.95;;;8.45;;
64457;SDS011;58438;51.200;7.252;2022-10-14T12:54:43;14.90;;;8.35;;
64457;SDS011;58438;51.200;7.252;2022-10-14T12:57:32;16.73;;;8.85;;
64457;SDS011;58438;51.200;7.252;2022-10-14T13:00:28;18.70;;;9.60;;
64457;SDS011;58438;51.200;7.252;2022-10-14T13:03:16;15.30;;;7.75;;
64457;SDS011;58438;51.200;7.252;2022-10-14T13:09:28;16.02;;;7.97;;
64457;SDS011;58438;51.200;7.252;2022-10-14T13:15:34;16.15;;;8.63;;
64457;SDS011;58438;51.200;7.252;2022-10-14T13:18:36;17.50;;;8.00;;
64457;SDS011;58438;51.200;7.252;2022-10-14T13:21:50;12.52;;;7.63;;
64457;SDS011;58438;51.200;7.252;2022-10-14T13:24:39;13.00;;;7.00;;
64457;SDS011;58438;51.200;7.252;2022-10-14T13:27:28;13.05;;;6.63;;
64457;SDS011;58438;51.200;7.252;2022-10-14T13:30:19;12.55;;;7.10;;
64457;SDS011;58438;51.200;7.252;2022-10-14T13:33:12;14.00;;;7.68;;
64457;SDS011;58438;51.200;7.252;2022-10-14T13:36:03;13.68;;;7.78;;
64457;SDS011;58438;51.200;7.252;2022-10-14T13:38:54;15.23;;;8.32;;
64457;SDS011;58438;51.200;7.252;2022-10-14T13:41:43;13.60;;;6.75;;
64457;SDS011;58438;51.200;7.252;2022-10-14T13:44:30;12.48;;;6.97;;
64457;SDS011;58438;51.200;7.252;2022-10-14T13:47:19;13.65;;;7.32;;
64457;SDS011;58438;51.200;7.252;2022-10-14T13:50:08;13.60;;;7.55;;
64457;SDS011;58438;51.200;7.252;2022-10-14T13:52:57;12.13;;;6.60;;
64457;SDS011;58438;51.200;7.252;2022-10-14T13:55:45;12.13;;;6.57;;
64457;SDS011;58438;51.200;7.252;2022-10-14T13:58:40;12.65;;;6.95;;
64457;SDS011;58438;51.200;7.252;2022-10-14T14:01:28;11.18;;;6.25;;
64457;SDS011;58438;51.200;7.252;2022-10-14T14:04:18;13.10;;;6.47;;
64457;SDS011;58438;51.200;7.252;2022-10-14T14:07:10;12.57;;;7.10;;
64457;SDS011;58438;51.200;7.252;2022-10-14T14:10:21;12.63;;;6.47;;
64457;SDS011;58438;51.200;7.252;2022-10-14T14:13:09;12.65;;;6.18;;
64457;SDS011;58438;51.200;7.252;2022-10-14T14:15:58;11.75;;;6.65;;
64457;SDS011;58438;51.200;7.252;2022-10-14T14:18:46;10.85;;;6.72;;
64457;SDS011;58438;51.200;7.252;2022-10-14T14:22:03;11.35;;;7.43;;
64457;SDS011;58438;51.200;7.252;2022-10-14T14:24:50;11.70;;;7.32;;
64457;SDS011;58438;51.200;7.252;2022-10-14T14:27:41;15.10;;;8.20;;
64457;SDS011;58438;51.200;7.252;2022-10-14T14:30:29;12.60;;;7.05;;
64457;SDS011;58438;51.200;7.252;2022-10-14T14:33:18;14.15;;;7.68;;
64457;SDS011;58438;51.200;7.252;2022-10-14T14:36:09;14.23;;;8.10;;
64457;SDS011;58438;51.200;7.252;2022-10-14T14:39:16;14.10;;;7.40;;
64457;SDS011;58438;51.200;7.252;2022-10-14T14:42:06;13.98;;;7.82;;
64457;SDS011;58438;51.200;7.252;2022-10-14T14:44:55;13.93;;;7.97;;
64457;SDS011;58438;51.200;7.252;2022-10-14T14:47:44;12.80;;;7.47;;
64457;SDS011;58438;51.200;7.252;2022-10-14T14:50:34;13.93;;;7.28;;
64457;SDS011;58438;51.200;7.252;2022-10-14T14:53:22;14.32;;;7.90;;
64457;SDS011;58438;51.200;7.252;2022-10-14T14:56:14;12.57;;;7.00;;
64457;SDS011;58438;51.200;7.252;2022-10-14T14:59:05;11.07;;;7.03;;
64457;SDS011;58438;51.200;7.252;2022-10-14T15:01:53;14.40;;;7.30;;
64457;SDS011;58438;51.200;7.252;2022-10-14T15:04:41;12.65;;;7.68;;
64457;SDS011;58438;51.200;7.252;2022-10-14T15:07:30;13.30;;;6.97;;
64457;SDS011;58438;51.200;7.252;2022-10-14T15:10:21;11.20;;;6.55;;
64457;SDS011;58438;51.200;7.252;2022-10-14T15:13:22;54.10;;;24.30;;
64457;SDS011;58438;51.200;7.252;2022-10-14T15:16:10;31.73;;;15.02;;
64457;SDS011;58438;51.200;7.252;2022-10-14T15:19:10;34.63;;;16.40;;
64457;SDS011;58438;51.200;7.252;2022-10-14T15:22:08;19.05;;;10.07;;
64457;SDS011;58438;51.200;7.252;2022-10-14T15:25:02;10.82;;;6.60;;
64457;SDS011;58438;51.200;7.252;2022-10-14T15:27:50;12.52;;;7.47;;
64457;SDS011;58438;51.200;7.252;2022-10-14T15:30:47;11.30;;;7.97;;
64457;SDS011;58438;51.200;7.252;2022-10-14T15:33:36;14.65;;;8.38;;
64457;SDS011;58438;51.200;7.252;2022-10-14T15:36:24;14.75;;;11.27;;
64457;SDS011;58438;51.200;7.252;2022-10-14T15:39:11;12.90;;;9.00;;
64457;SDS011;58438;51.200;7.252;2022-10-14T15:42:00;17.17;;;9.70;;
64457;SDS011;58438;51.200;7.252;2022-10-14T15:44:46;114.80;;;64.55;;
64457;SDS011;58438;51.200;7.252;2022-10-14T15:47:34;69.05;;;49.13;;
64457;SDS011;58438;51.200;7.252;2022-10-14T15:50:21;35.53;;;28.65;;
64457;SDS011;58438;51.200;7.252;2022-10-14T15:53:09;27.70;;;24.83;;
64457;SDS011;58438;51.200;7.252;2022-10-14T15:55:56;33.97;;;29.60;;
64457;SDS011;58438;51.200;7.252;2022-10-14T15:58:46;19.95;;;13.23;;
64457;SDS011;58438;51.200;7.252;2022-10-14T16:01:33;20.10;;;14.65;;
64457;SDS011;58438;51.200;7.252;2022-10-14T16:04:22;20.48;;;13.55;;
64457;SDS011;58438;51.200;7.252;2022-10-14T16:07:09;22.58;;;16.35;;
64457;SDS011;58438;51.200;7.252;2022-10-14T16:09:59;31.50;;;28.48;;
64457;SDS011;58438;51.200;7.252;2022-10-14T16:12:46;22.48;;;18.23;;
64457;SDS011;58438;51.200;7.252;2022-10-14T16:15:36;20.30;;;15.05;;
64457;SDS011;58438;51.200;7.252;2022-10-14T16:18:24;19.02;;;13.35;;
64457;SDS011;58438;51.200;7.252;2022-10-14T16:21:12;23.60;;;15.88;;
64457;SDS011;58438;51.200;7.252;2022-10-14T16:24:01;27.35;;;17.55;;
64457;SDS011;58438;51.200;7.252;2022-10-14T16:26:49;28.92;;;17.33;;
64457;SDS011;58438;51.200;7.252;2022-10-14T16:29:36;30.15;;;20.48;;
64457;SDS011;58438;51.200;7.252;2022-10-14T16:32:25;23.30;;;17.63;;
64457;SDS011;58438;51.200;7.252;2022-10-14T16:35:12;29.10;;;21.13;;
64457;SDS011;58438;51.200;7.252;2022-10-14T16:37:58;28.67;;;21.20;;
64457;SDS011;58438;51.200;7.252;2022-10-14T16:40:51;36.42;;;25.55;;
64457;SDS011;58438;51.200;7.252;2022-10-14T16:43:39;38.25;;;28.45;;
64457;SDS011;58438;51.200;7.252;2022-10-14T16:46:26;32.08;;;26.35;;
64457;SDS011;58438;51.200;7.252;2022-10-14T16:49:28;32.55;;;22.38;;
64457;SDS011;58438;51.200;7.252;2022-10-14T16:52:15;32.20;;;19.73;;
64457;SDS011;58438;51.200;7.252;2022-10-14T16:55:02;31.75;;;19.13;;
64457;SDS011;58438;51.200;7.252;2022-10-14T16:57:49;30.63;;;17.42;;